createdAt,value
2023-02-17T00:02:07.988Z,100830.34
2023-02-17T00:04:35.444Z,100831.25
2023-02-17T00:07:04.059Z,100830.72
2023-02-17T00:09:31.311Z,100839.63
2023-02-17T00:11:58.593Z,100833.06
2023-02-17T00:14:25.970Z,100842.06
2023-02-17T00:16:53.568Z,100839.38
2023-02-17T00:19:26.623Z,100836.31
2023-02-17T00:21:55.050Z,100843.44
2023-02-17T00:24:23.998Z,100841.03
2023-02-17T00:26:51.298Z,100838.28
2023-02-17T00:29:19.056Z,100835.75
2023-02-17T00:31:46.770Z,100827.03
2023-02-17T00:34:14.265Z,100818.56
2023-02-17T00:36:41.538Z,100826.19
2023-02-17T00:39:09.151Z,100819.47
2023-02-17T00:41:37.727Z,100822.84
2023-02-17T00:44:05.032Z,100823.78
2023-02-17T00:46:32.711Z,100823.94
2023-02-17T00:49:00.030Z,100823.94
2023-02-17T00:51:27.303Z,100818.19
2023-02-17T00:53:55.331Z,100822.72
2023-02-17T00:56:22.880Z,100817.50
2023-02-17T00:58:51.837Z,100813.38
2023-02-17T01:01:19.165Z,100814.84
2023-02-17T01:03:46.445Z,100807.09
2023-02-17T01:06:19.363Z,100813.34
2023-02-17T01:08:46.686Z,100811.16
2023-02-17T01:11:17.867Z,100809.56
2023-02-17T01:13:45.175Z,100810.34
2023-02-17T01:16:18.349Z,100805.88
2023-02-17T01:18:45.634Z,100817.41
2023-02-17T01:21:16.725Z,100803.34
2023-02-17T01:23:44.076Z,100794.56
2023-02-17T01:26:14.838Z,100801.63
2023-02-17T01:28:42.139Z,100799.38
2023-02-17T01:31:09.660Z,100796.66
2023-02-17T01:33:38.304Z,100795.47
2023-02-17T01:36:06.602Z,100781.63
2023-02-17T01:38:34.069Z,100780.97
2023-02-17T01:41:01.351Z,100782.59
2023-02-17T01:43:28.732Z,100783.22
2023-02-17T01:45:56.794Z,100791.22
2023-02-17T01:48:26.201Z,100787.75
2023-02-17T01:50:56.006Z,100786.84
2023-02-17T01:53:25.582Z,100779.91
2023-02-17T01:55:53.541Z,100767.44
2023-02-17T01:58:21.785Z,100782.53
2023-02-17T02:00:49.762Z,100774.59
2023-02-17T02:03:17.113Z,100776.28
2023-02-17T02:05:44.923Z,100765.56
2023-02-17T02:08:14.500Z,100763.13
2023-02-17T02:10:41.790Z,100750.16
2023-02-17T02:13:09.568Z,100747.97
2023-02-17T02:15:39.945Z,100735.53
2023-02-17T02:18:14.465Z,100734.81
2023-02-17T02:20:59.738Z,100738.53
2023-02-17T02:23:45.117Z,100730.53
2023-02-17T02:26:33.097Z,100719.50
2023-02-17T02:29:09.558Z,100712.41
2023-02-17T02:31:43.337Z,100724.28
2023-02-17T02:34:15.252Z,100711.81
2023-02-17T02:36:45.250Z,100702.47
2023-02-17T02:39:15.012Z,100696.00
2023-02-17T02:41:44.518Z,100700.72
2023-02-17T02:44:13.813Z,100686.09
2023-02-17T02:46:41.127Z,100685.25
2023-02-17T02:49:08.588Z,100679.06
2023-02-17T02:51:42.652Z,100670.41
2023-02-17T02:54:23.219Z,100672.66
2023-02-17T02:56:57.279Z,100663.06
2023-02-17T02:59:33.630Z,100658.69
2023-02-17T03:02:06.870Z,100644.03
2023-02-17T03:04:37.721Z,100654.69
2023-02-17T03:07:10.257Z,100671.56
2023-02-17T03:09:37.543Z,100668.94
2023-02-17T03:12:05.065Z,100658.84
2023-02-17T03:14:37.261Z,100660.19
2023-02-17T03:17:04.534Z,100659.31
2023-02-17T03:19:31.808Z,100657.84
2023-02-17T03:22:02.377Z,100651.75
2023-02-17T03:24:30.970Z,100651.25
2023-02-17T03:26:58.214Z,100627.53
2023-02-17T03:29:25.469Z,100634.13
2023-02-17T03:31:52.821Z,100629.41
2023-02-17T03:34:20.123Z,100629.78
2023-02-17T03:36:47.408Z,100623.59
2023-02-17T03:39:14.742Z,100634.44
2023-02-17T03:41:43.345Z,100625.81
2023-02-17T03:44:10.600Z,100617.19
2023-02-17T03:46:39.389Z,100621.44
2023-02-17T03:49:06.771Z,100635.69
2023-02-17T03:51:34.012Z,100629.84
2023-02-17T03:54:01.312Z,100628.81
2023-02-17T03:56:28.706Z,100626.16
2023-02-17T03:58:57.358Z,100624.13
2023-02-17T04:01:24.696Z,100614.19
2023-02-17T04:03:52.059Z,100628.44
2023-02-17T04:06:19.654Z,100618.00
2023-02-17T04:08:47.082Z,100622.44
2023-02-17T04:11:14.384Z,100621.47
2023-02-17T04:13:41.710Z,100613.56
2023-02-17T04:16:11.276Z,100618.44
2023-02-17T04:18:38.885Z,100614.13
2023-02-17T04:21:06.513Z,100611.53
2023-02-17T04:23:34.944Z,100623.69
2023-02-17T04:26:02.268Z,100626.44
2023-02-17T04:28:29.591Z,100626.41
2023-02-17T04:30:58.330Z,100632.72
2023-02-17T04:33:27.360Z,100627.06
2023-02-17T04:35:59.366Z,100623.94
2023-02-17T04:38:27.362Z,100620.34
2023-02-17T04:40:55.927Z,100620.50
2023-02-17T04:43:23.260Z,100614.78
2023-02-17T04:45:51.101Z,100604.47
2023-02-17T04:48:18.750Z,100600.75
2023-02-17T04:50:47.400Z,100607.25
2023-02-17T04:53:14.998Z,100606.00
2023-02-17T04:55:42.587Z,100612.41
2023-02-17T04:58:10.526Z,100603.41
2023-02-17T05:00:38.000Z,100586.81
2023-02-17T05:03:05.265Z,100595.91
2023-02-17T05:05:32.526Z,100596.28
2023-02-17T05:08:01.122Z,100584.25
2023-02-17T05:10:28.522Z,100587.53
2023-02-17T05:12:55.787Z,100586.75
2023-02-17T05:15:23.152Z,100589.34
2023-02-17T05:17:50.467Z,100591.75
2023-02-17T05:20:17.796Z,100589.78
2023-02-17T05:22:45.055Z,100594.28
2023-02-17T05:25:13.625Z,100590.75
2023-02-17T05:27:40.874Z,100589.47
2023-02-17T05:30:08.626Z,100587.41
2023-02-17T05:32:35.975Z,100584.28
2023-02-17T05:35:03.286Z,100584.69
2023-02-17T05:37:30.571Z,100577.13
2023-02-17T05:39:57.830Z,100569.34
2023-02-17T05:42:28.723Z,100569.41
2023-02-17T05:44:56.081Z,100571.50
2023-02-17T05:47:23.400Z,100574.00
2023-02-17T05:49:50.658Z,100569.41
2023-02-17T05:52:18.570Z,100562.84
2023-02-17T05:54:46.056Z,100556.09
2023-02-17T05:57:13.353Z,100559.72
2023-02-17T05:59:41.938Z,100559.63
2023-02-17T06:02:09.532Z,100553.50
2023-02-17T06:04:36.950Z,100546.91
2023-02-17T06:07:04.256Z,100561.19
2023-02-17T06:09:31.625Z,100550.00
2023-02-17T06:11:58.880Z,100548.47
2023-02-17T06:14:26.129Z,100557.56
2023-02-17T06:16:56.780Z,100553.44
2023-02-17T06:19:24.436Z,100555.50
2023-02-17T06:21:51.705Z,100550.78
2023-02-17T06:24:18.968Z,100560.84
2023-02-17T06:26:46.235Z,100551.47
2023-02-17T06:29:13.487Z,100555.22
2023-02-17T06:31:40.824Z,100557.78
2023-02-17T06:34:09.507Z,100550.44
2023-02-17T06:36:36.800Z,100558.94
2023-02-17T06:39:04.409Z,100560.09
2023-02-17T06:41:31.676Z,100565.25
2023-02-17T06:43:58.968Z,100559.81
2023-02-17T06:46:26.247Z,100555.91
2023-02-17T06:48:53.481Z,100556.47
2023-02-17T06:51:22.084Z,100557.97
2023-02-17T06:53:49.346Z,100542.72
2023-02-17T06:56:16.626Z,100549.28
2023-02-17T06:58:43.911Z,100546.53
2023-02-17T07:01:16.480Z,100542.59
2023-02-17T07:03:43.751Z,100537.16
2023-02-17T07:06:11.042Z,100551.97
2023-02-17T07:08:39.635Z,100535.25
2023-02-17T07:11:07.256Z,100546.91
2023-02-17T07:13:34.573Z,100550.34
2023-02-17T07:16:01.930Z,100546.03
2023-02-17T07:18:29.442Z,100546.78
2023-02-17T07:20:56.716Z,100546.13
2023-02-17T07:23:23.961Z,100542.88
2023-02-17T07:25:52.552Z,100536.56
2023-02-17T07:28:19.829Z,100522.59
2023-02-17T07:30:47.094Z,100543.56
2023-02-17T07:33:14.414Z,100545.28
2023-02-17T07:35:43.879Z,100545.78
2023-02-17T07:38:11.293Z,100544.50
2023-02-17T07:40:38.612Z,100546.88
2023-02-17T07:43:07.218Z,100536.59
2023-02-17T07:45:34.794Z,100532.72
2023-02-17T07:48:02.083Z,100535.06
2023-02-17T07:50:29.346Z,100529.50
2023-02-17T07:52:56.605Z,100536.16
2023-02-17T07:55:24.265Z,100536.56
2023-02-17T07:57:51.594Z,100520.47
2023-02-17T08:00:20.899Z,100517.41
2023-02-17T08:02:48.197Z,100514.50
2023-02-17T08:05:15.486Z,100524.38
2023-02-17T08:07:42.789Z,100515.09
2023-02-17T08:10:29.415Z,100526.00
2023-02-17T08:13:14.716Z,100522.16
2023-02-17T08:15:43.328Z,100526.84
2023-02-17T08:18:10.821Z,100536.50
2023-02-17T08:20:38.120Z,100548.84
2023-02-17T08:23:05.495Z,100543.41
2023-02-17T08:25:33.754Z,100544.91
2023-02-17T08:28:01.169Z,100557.44
2023-02-17T08:30:28.602Z,100546.03
2023-02-17T08:32:57.391Z,100555.25
2023-02-17T08:35:25.794Z,100553.53
2023-02-17T08:37:53.069Z,100551.44
2023-02-17T08:40:20.534Z,100551.66
2023-02-17T08:42:48.284Z,100546.94
2023-02-17T08:45:16.061Z,100548.16
2023-02-17T08:47:43.809Z,100551.81
2023-02-17T08:50:16.267Z,100550.50
2023-02-17T08:52:43.596Z,100544.63
2023-02-17T08:55:11.237Z,100541.38
2023-02-17T08:57:38.580Z,100543.00
2023-02-17T09:00:08.211Z,100537.34
2023-02-17T09:02:35.881Z,100542.47
2023-02-17T09:05:03.231Z,100533.81
2023-02-17T09:07:31.885Z,100523.84
2023-02-17T09:09:59.156Z,100522.38
2023-02-17T09:12:26.436Z,100516.72
2023-02-17T09:14:53.717Z,100501.38
2023-02-17T09:17:21.091Z,100514.78
2023-02-17T09:19:48.863Z,100502.44
2023-02-17T09:22:30.809Z,100496.97
2023-02-17T09:25:00.510Z,100497.22
2023-02-17T09:27:27.832Z,100494.22
2023-02-17T09:29:55.302Z,100502.38
2023-02-17T09:32:22.939Z,100499.19
2023-02-17T09:34:53.915Z,100497.03
2023-02-17T09:37:21.573Z,100501.34
2023-02-17T09:39:49.777Z,100495.97
2023-02-17T09:42:20.644Z,100494.44
2023-02-17T09:44:49.649Z,100490.25
2023-02-17T09:47:18.732Z,100486.81
2023-02-17T09:49:49.537Z,100492.59
2023-02-17T09:52:19.061Z,100474.22
2023-02-17T09:54:52.852Z,100465.50
2023-02-17T09:57:22.637Z,100469.06
2023-02-17T09:59:51.620Z,100472.94
2023-02-17T10:02:22.184Z,100457.81
2023-02-17T10:04:52.125Z,100454.78
2023-02-17T10:07:22.714Z,100435.63
2023-02-17T10:09:51.760Z,100447.53
2023-02-17T10:12:20.984Z,100445.88
2023-02-17T10:14:52.586Z,100440.19
2023-02-17T10:17:24.379Z,100440.59
2023-02-17T10:19:55.129Z,100440.06
2023-02-17T10:22:24.012Z,100439.75
2023-02-17T10:24:51.350Z,100448.31
2023-02-17T10:27:28.537Z,100451.34
2023-02-17T10:30:02.353Z,100446.84
2023-02-17T10:32:31.214Z,100430.69
2023-02-17T10:35:08.456Z,100430.00
2023-02-17T10:37:42.039Z,100416.56
2023-02-17T10:40:12.839Z,100402.25
2023-02-17T10:42:40.186Z,100386.88
2023-02-17T10:45:12.841Z,100390.06
2023-02-17T10:47:40.809Z,100383.56
2023-02-17T10:50:15.071Z,100372.91
2023-02-17T10:52:42.810Z,100382.13
2023-02-17T10:55:22.906Z,100373.34
2023-02-17T10:57:53.074Z,100370.16
2023-02-17T11:00:22.538Z,100370.41
2023-02-17T11:02:51.485Z,100367.09
2023-02-17T11:05:23.257Z,100354.22
2023-02-17T11:07:55.579Z,100350.53
2023-02-17T11:10:24.633Z,100341.50
2023-02-17T11:12:52.446Z,100342.31
2023-02-17T11:15:20.648Z,100335.31
2023-02-17T11:17:49.678Z,100334.59
2023-02-17T11:20:29.365Z,100326.81
2023-02-17T11:23:02.018Z,100319.50
2023-02-17T11:25:30.179Z,100319.41
2023-02-17T11:27:58.842Z,100316.72
2023-02-17T11:30:27.445Z,100310.97
2023-02-17T11:32:56.193Z,100295.34
2023-02-17T11:35:25.166Z,100285.03
2023-02-17T11:37:52.464Z,100291.03
2023-02-17T11:40:26.930Z,100282.31
2023-02-17T11:42:57.566Z,100267.66
2023-02-17T11:45:27.186Z,100268.53
2023-02-17T11:48:01.439Z,100276.47
2023-02-17T11:50:41.414Z,100267.06
2023-02-17T11:53:20.953Z,100260.75
2023-02-17T11:55:55.021Z,100273.81
2023-02-17T11:58:27.711Z,100269.94
2023-02-17T12:01:00.162Z,100255.25
2023-02-17T12:03:39.697Z,100250.41
2023-02-17T12:06:11.849Z,100231.94
2023-02-17T12:08:45.274Z,100254.91
2023-02-17T12:11:20.765Z,100237.56
2023-02-17T12:13:56.417Z,100235.50
2023-02-17T12:16:29.736Z,100231.94
2023-02-17T12:19:01.067Z,100231.97
2023-02-17T12:21:39.013Z,100193.28
2023-02-17T12:24:11.177Z,100218.97
2023-02-17T12:26:40.395Z,100225.94
2023-02-17T12:29:18.795Z,100191.22
2023-02-17T12:31:59.988Z,100214.34
2023-02-17T12:34:30.778Z,100197.19
2023-02-17T12:36:59.547Z,100193.41
2023-02-17T12:39:29.837Z,100206.13
2023-02-17T12:42:00.259Z,100185.69
2023-02-17T12:44:29.702Z,100185.06
2023-02-17T12:46:57.944Z,100169.63
2023-02-17T12:49:28.506Z,100177.31
2023-02-17T12:51:59.841Z,100172.81
2023-02-17T12:54:31.245Z,100188.84
2023-02-17T12:57:03.744Z,100182.03
2023-02-17T12:59:33.725Z,100172.06
2023-02-17T13:02:02.520Z,100167.88
2023-02-17T13:04:30.845Z,100148.69
2023-02-17T13:07:07.918Z,100167.78
2023-02-17T13:09:36.765Z,100153.38
2023-02-17T13:12:11.798Z,100145.00
2023-02-17T13:14:40.669Z,100140.94
2023-02-17T13:17:22.561Z,100142.44
2023-02-17T13:20:00.702Z,100134.97
2023-02-17T13:22:29.323Z,100134.38
2023-02-17T13:24:56.850Z,100144.69
2023-02-17T13:27:32.117Z,100138.13
2023-02-17T13:30:00.328Z,100132.19
2023-02-17T13:32:28.387Z,100141.03
2023-02-17T13:35:00.420Z,100127.53
2023-02-17T13:37:40.416Z,100098.53
2023-02-17T13:40:26.287Z,100109.31
2023-02-17T13:42:55.038Z,100123.47
2023-02-17T13:45:24.987Z,100112.22
2023-02-17T13:47:53.358Z,100107.25
2023-02-17T13:50:29.025Z,100100.56
2023-02-17T13:52:58.111Z,100111.47
2023-02-17T13:55:25.733Z,100094.38
2023-02-17T13:57:53.931Z,100081.50
2023-02-17T14:00:22.441Z,100095.38
2023-02-17T14:02:51.709Z,100087.50
2023-02-17T14:05:20.485Z,100103.19
2023-02-17T14:07:48.346Z,100082.56
2023-02-17T14:10:24.281Z,100081.94
2023-02-17T14:12:51.961Z,100096.75
2023-02-17T14:15:20.178Z,100063.88
2023-02-17T14:17:47.485Z,100084.06
2023-02-17T14:20:29.690Z,100075.50
2023-02-17T14:23:04.262Z,100070.34
2023-02-17T14:25:34.051Z,100055.31
2023-02-17T14:28:01.438Z,100061.88
2023-02-17T14:30:29.950Z,100057.06
2023-02-17T14:33:02.389Z,100058.22
2023-02-17T14:35:29.666Z,100056.53
2023-02-17T14:38:07.189Z,100037.47
2023-02-17T14:40:35.861Z,100059.72
2023-02-17T14:43:03.453Z,100041.09
2023-02-17T14:45:30.776Z,100047.50
2023-02-17T14:47:58.362Z,100053.47
2023-02-17T14:50:25.713Z,100038.56
2023-02-17T14:52:53.517Z,100043.97
2023-02-17T14:55:28.279Z,100030.63
2023-02-17T14:57:56.903Z,100038.72
2023-02-17T15:00:25.716Z,100023.22
2023-02-17T15:02:54.118Z,100005.53
2023-02-17T15:05:21.398Z,99991.63
2023-02-17T15:07:49.466Z,99995.34
2023-02-17T15:10:19.833Z,100020.03
2023-02-17T15:12:47.798Z,99995.66
2023-02-17T15:15:17.603Z,100008.94
2023-02-17T15:17:45.385Z,100030.09
2023-02-17T15:20:13.459Z,100027.41
2023-02-17T15:22:41.693Z,100027.84
2023-02-17T15:25:16.929Z,100052.53
2023-02-17T15:27:44.819Z,100061.56
2023-02-17T15:30:13.134Z,100062.94
2023-02-17T15:32:42.794Z,100089.78
2023-02-17T15:35:16.592Z,100084.81
2023-02-17T15:37:43.849Z,100086.44
2023-02-17T15:40:13.938Z,100085.00
2023-02-17T15:42:41.239Z,100068.44
2023-02-17T15:45:11.357Z,100082.56
2023-02-17T15:47:40.000Z,100079.16
2023-02-17T15:50:13.028Z,100077.19
2023-02-17T15:52:40.309Z,100079.78
2023-02-17T15:55:08.285Z,100071.25
2023-02-17T15:57:39.626Z,100082.38
2023-02-17T16:00:07.868Z,100077.31
2023-02-17T16:02:35.151Z,100070.75
2023-02-17T16:05:02.604Z,100081.72
2023-02-17T16:10:23.826Z,100076.06
2023-02-17T16:12:52.354Z,100072.66
2023-02-17T16:15:24.048Z,100075.59
2023-02-17T16:17:51.880Z,100074.13
2023-02-17T16:20:20.984Z,100059.25
2023-02-17T16:22:49.883Z,100068.13
2023-02-17T16:25:17.693Z,100058.53
2023-02-17T16:27:46.502Z,100050.94
2023-02-17T16:30:17.743Z,100060.47
2023-02-17T16:32:45.451Z,100051.22
2023-02-17T16:35:16.351Z,100057.56
2023-02-17T16:37:48.035Z,100054.16
2023-02-17T16:40:17.996Z,100053.91
2023-02-17T16:42:45.326Z,100049.66
2023-02-17T16:45:19.582Z,100043.47
2023-02-17T16:47:48.606Z,100038.22
2023-02-17T16:50:21.356Z,100061.78
2023-02-17T16:52:48.606Z,100040.31
2023-02-17T16:55:18.106Z,100050.44
2023-02-17T16:57:46.194Z,100051.47
2023-02-17T17:00:14.517Z,100022.38
2023-02-17T17:02:42.013Z,100042.81
2023-02-17T17:05:10.292Z,100042.19
2023-02-17T17:07:38.631Z,100041.22
2023-02-17T17:10:16.376Z,100022.84
2023-02-17T17:12:46.381Z,100041.56
2023-02-17T17:15:13.977Z,100031.56
2023-02-17T17:17:43.694Z,100038.88
2023-02-17T17:20:14.545Z,100025.00
2023-02-17T17:22:42.044Z,100064.75
2023-02-17T17:25:09.415Z,100031.91
2023-02-17T17:27:37.562Z,100055.44
2023-02-17T17:30:07.409Z,100059.81
2023-02-17T17:32:34.781Z,100058.84
2023-02-17T17:35:02.097Z,100061.31
2023-02-17T17:37:29.386Z,100073.03
2023-02-17T17:39:56.661Z,100067.53
2023-02-17T17:42:23.935Z,100064.50
2023-02-17T17:44:51.195Z,100077.75
2023-02-17T17:47:29.821Z,100082.03
2023-02-17T17:49:57.601Z,100077.91
2023-02-17T17:52:24.907Z,100074.25
2023-02-17T17:54:52.200Z,100077.34
2023-02-17T17:57:19.523Z,100091.97
2023-02-17T17:59:46.787Z,100093.28
2023-02-17T18:02:14.073Z,100089.06
2023-02-17T18:04:42.687Z,100083.41
2023-02-17T18:07:10.083Z,100110.88
2023-02-17T18:09:38.954Z,100107.63
2023-02-17T18:12:08.664Z,100105.97
2023-02-17T18:14:37.963Z,100107.72
2023-02-17T18:17:05.456Z,100099.84
2023-02-17T18:19:33.284Z,100121.66
2023-02-17T18:22:03.021Z,100135.81
2023-02-17T18:24:30.449Z,100151.25
2023-02-17T18:26:57.787Z,100160.97
2023-02-17T18:29:25.107Z,100159.09
2023-02-17T18:31:52.501Z,100170.13
2023-02-17T18:34:19.808Z,100179.19
2023-02-17T18:36:47.112Z,100175.66
2023-02-17T18:39:15.749Z,100190.72
2023-02-17T18:41:43.002Z,100196.09
2023-02-17T18:44:10.960Z,100208.47
2023-02-17T18:46:39.833Z,100208.81
2023-02-17T18:49:07.199Z,100217.72
2023-02-17T18:51:34.567Z,100228.59
2023-02-17T18:54:02.340Z,100212.28
2023-02-17T18:56:32.506Z,100196.38
2023-02-17T18:59:00.108Z,100193.94
2023-02-17T19:01:28.686Z,100200.28
2023-02-17T19:03:56.655Z,100209.66
2023-02-17T19:06:24.935Z,100226.53
2023-02-17T19:08:52.418Z,100204.69
2023-02-17T19:11:20.944Z,100220.31
2023-02-17T19:13:49.623Z,100207.63
2023-02-17T19:16:18.420Z,100205.84
2023-02-17T19:18:47.170Z,100229.28
2023-02-17T19:21:15.049Z,100228.84
2023-02-17T19:23:42.888Z,100222.50
2023-02-17T19:26:11.491Z,100215.25
2023-02-17T19:28:39.505Z,100218.31
2023-02-17T19:31:08.885Z,100219.81
2023-02-17T19:33:36.518Z,100229.81
2023-02-17T19:36:06.810Z,100226.25
2023-02-17T19:38:34.543Z,100221.75
2023-02-17T19:41:02.702Z,100219.28
2023-02-17T19:43:30.160Z,100217.88
2023-02-17T19:45:57.587Z,100232.31
2023-02-17T19:48:26.494Z,100238.13
2023-02-17T19:50:58.608Z,100232.94
2023-02-17T19:53:25.975Z,100241.38
2023-02-17T19:55:53.250Z,100242.84
2023-02-17T19:58:20.515Z,100243.94
2023-02-17T20:00:47.787Z,100235.41
2023-02-17T20:03:15.123Z,100238.00
2023-02-17T20:05:43.754Z,100235.16
2023-02-17T20:08:11.035Z,100235.78
2023-02-17T20:10:40.018Z,100222.84
2023-02-17T20:13:07.392Z,100244.09
2023-02-17T20:15:35.007Z,100236.41
2023-02-17T20:18:02.279Z,100238.13
2023-02-17T20:20:29.987Z,100248.25
2023-02-17T20:22:58.887Z,100251.22
2023-02-17T20:25:26.141Z,100242.06
2023-02-17T20:27:53.915Z,100238.03
2023-02-17T20:30:21.356Z,100241.66
2023-02-17T20:32:48.741Z,100243.16
2023-02-17T20:35:16.479Z,100261.13
2023-02-17T20:37:43.989Z,100242.44
2023-02-17T20:40:12.824Z,100253.78
2023-02-17T20:42:40.065Z,100250.50
2023-02-17T20:45:07.555Z,100262.72
2023-02-17T20:47:34.872Z,100251.50
2023-02-17T20:50:08.289Z,100249.88
2023-02-17T20:52:35.566Z,100266.00
2023-02-17T20:55:02.822Z,100261.97
2023-02-17T20:57:32.060Z,100264.63
2023-02-17T20:59:59.407Z,100270.00
2023-02-17T21:02:26.759Z,100279.41
2023-02-17T21:04:54.371Z,100274.16
2023-02-17T21:07:21.670Z,100269.72
2023-02-17T21:09:49.248Z,100265.19
2023-02-17T21:12:16.557Z,100268.72
2023-02-17T21:14:45.268Z,100280.22
2023-02-17T21:17:12.886Z,100277.00
2023-02-17T21:19:40.565Z,100285.66
2023-02-17T21:22:08.061Z,100285.91
2023-02-17T21:24:35.905Z,100294.31
2023-02-17T21:27:03.295Z,100287.09
2023-02-17T21:29:30.602Z,100301.78
2023-02-17T21:31:59.333Z,100303.31
2023-02-17T21:34:26.774Z,100315.41
2023-02-17T21:36:54.044Z,100297.94
2023-02-17T21:39:21.348Z,100313.56
2023-02-17T21:41:48.818Z,100315.63
2023-02-17T21:44:33.964Z,100315.75
2023-02-17T21:47:02.604Z,100328.63
2023-02-17T21:49:29.949Z,100341.94
2023-02-17T21:51:57.293Z,100324.63
2023-02-17T21:54:24.569Z,100358.31
2023-02-17T21:56:51.954Z,100355.69
2023-02-17T21:59:19.275Z,100358.88
2023-02-17T22:01:46.605Z,100365.19
2023-02-17T22:04:15.315Z,100367.03
2023-02-17T22:06:42.921Z,100393.06
2023-02-17T22:09:12.054Z,100409.97
2023-02-17T22:11:40.604Z,100427.41
2023-02-17T22:14:09.988Z,100421.84
2023-02-17T22:16:37.773Z,100454.41
2023-02-17T22:19:06.081Z,100452.44
2023-02-17T22:21:34.994Z,100452.44
2023-02-17T22:24:02.778Z,100446.78
2023-02-17T22:26:30.542Z,100461.03
2023-02-17T22:28:58.319Z,100453.84
2023-02-17T22:31:26.885Z,100462.00
2023-02-17T22:33:54.451Z,100457.28
2023-02-17T22:36:23.039Z,100467.16
2023-02-17T22:38:52.388Z,100465.41
2023-02-17T22:41:20.813Z,100471.53
2023-02-17T22:43:48.606Z,100466.84
2023-02-17T22:46:18.162Z,100468.59
2023-02-17T22:48:46.370Z,100471.78
2023-02-17T22:51:15.940Z,100469.69
2023-02-17T22:53:43.514Z,100468.63
2023-02-17T22:56:12.486Z,100481.25
2023-02-17T22:58:39.874Z,100472.81
2023-02-17T23:01:08.709Z,100478.22
2023-02-17T23:03:36.374Z,100481.28
2023-02-17T23:06:05.462Z,100479.34
2023-02-17T23:08:33.201Z,100490.44
2023-02-17T23:11:00.766Z,100498.84
2023-02-17T23:13:29.362Z,100488.72
2023-02-17T23:15:56.623Z,100499.25
2023-02-17T23:18:24.469Z,100504.50
2023-02-17T23:20:51.972Z,100505.53
2023-02-17T23:23:19.345Z,100507.06
2023-02-17T23:25:49.034Z,100512.22
2023-02-17T23:28:16.427Z,100508.47
2023-02-17T23:30:46.709Z,100510.25
2023-02-17T23:33:14.341Z,100510.72
2023-02-17T23:35:44.661Z,100512.13
2023-02-17T23:38:12.082Z,100512.03
2023-02-17T23:40:39.874Z,100506.69
2023-02-17T23:43:07.737Z,100523.06
2023-02-17T23:45:35.479Z,100512.28
2023-02-17T23:48:04.167Z,100525.13
2023-02-17T23:50:31.440Z,100528.72
2023-02-17T23:52:58.762Z,100525.28
2023-02-17T23:55:26.053Z,100523.94
2023-02-17T23:57:53.321Z,100524.81
